Time;durP1;ratioP1;P1;durP2;ratioP2;P2;SDS_P1;SDS_P2;PMS_P1;PMS_P2;Temp;Humidity;BMP_temperature;BMP_pressure;BME280_temperature;BME280_humidity;BME280_pressure;Samples;Min_cycle;Max_cycle;Signal;HPM_P1;HPM_P2
2022/07/14 00:00:44;;;;;;;5.85;1.10;;;;;;;;;;5077015;28;20082;-72
2022/07/14 00:03:10;;;;;;;3.95;1.13;;;;;;;;;;5076176;28;20078;-71
2022/07/14 00:05:35;;;;;;;4.20;1.20;;;;;;;;;;5076055;28;20031;-71
2022/07/14 00:08:01;;;;;;;3.92;1.08;;;;;;;;;;5078086;28;20075;-71
2022/07/14 00:10:26;;;;;;;5.60;1.20;;;;;;;;;;5083927;28;20028;-71
2022/07/14 00:12:51;;;;;;;3.30;1.30;;;;;;;;;;5083263;28;20422;-71
2022/07/14 00:15:17;;;;;;;4.15;1.30;;;;;;;;;;5079517;28;20107;-71
2022/07/14 00:17:42;;;;;;;4.30;1.30;;;;;;;;;;5077929;28;20028;-71
2022/07/14 00:20:08;;;;;;;5.05;1.30;;;;;;;;;;5082351;28;20036;-72
2022/07/14 00:22:33;;;;;;;3.83;1.05;;;;;;;;;;5079989;28;20028;-71
2022/07/14 00:24:59;;;;;;;5.68;1.13;;;;;;;;;;5068270;28;20040;-71
2022/07/14 00:27:24;;;;;;;4.25;1.10;;;;;;;;;;5086592;28;20036;-72
2022/07/14 00:29:49;;;;;;;4.20;1.25;;;;;;;;;;5088707;28;20028;-71
2022/07/14 00:32:15;;;;;;;6.88;1.30;;;;;;;;;;5078716;28;20455;-71
2022/07/14 00:34:41;;;;;;;2.65;1.20;;;;;;;;;;5089541;28;20028;-71
2022/07/14 00:37:06;;;;;;;4.43;1.10;;;;;;;;;;5088624;28;20047;-71
2022/07/14 00:39:54;;;;;;;3.20;1.30;;;;;;;;;;5088924;28;20079;-71
2022/07/14 00:42:33;;;;;;;8.45;1.15;;;;;;;;;;5086655;28;20040;-72
2022/07/14 00:45:03;;;;;;;2.35;1.08;;;;;;;;;;5072864;28;20025;-71
2022/07/14 00:47:28;;;;;;;2.90;1.27;;;;;;;;;;5078645;28;20085;-71
2022/07/14 00:49:55;;;;;;;2.50;1.25;;;;;;;;;;5077057;28;20028;-71
2022/07/14 00:52:21;;;;;;;4.57;1.20;;;;;;;;;;5089061;28;20039;-72
2022/07/14 00:54:46;;;;;;;4.63;1.45;;;;;;;;;;5078989;28;20039;-71
2022/07/14 00:57:12;;;;;;;5.47;1.27;;;;;;;;;;5089473;28;20036;-71
2022/07/14 00:59:37;;;;;;;4.05;1.30;;;;;;;;;;5081026;28;20040;-71
2022/07/14 01:02:02;;;;;;;4.88;1.42;;;;;;;;;;5075590;28;20039;-71
2022/07/14 01:04:28;;;;;;;4.82;1.10;;;;;;;;;;5082409;28;20028;-72
2022/07/14 01:06:53;;;;;;;2.33;1.02;;;;;;;;;;5076381;28;20025;-71
2022/07/14 01:09:18;;;;;;;6.50;1.48;;;;;;;;;;5079990;28;20432;-71
2022/07/14 01:11:43;;;;;;;3.17;1.17;;;;;;;;;;5078935;28;20012;-71
2022/07/14 01:14:09;;;;;;;4.07;1.17;;;;;;;;;;5082980;28;20034;-71
2022/07/14 01:16:34;;;;;;;7.50;1.83;;;;;;;;;;5074558;28;20275;-71
2022/07/14 01:18:59;;;;;;;3.95;1.50;;;;;;;;;;5077865;28;20032;-71
2022/07/14 01:21:25;;;;;;;5.63;1.27;;;;;;;;;;5076356;28;20029;-73
2022/07/14 01:23:50;;;;;;;3.50;1.33;;;;;;;;;;5079146;28;20048;-71
2022/07/14 01:26:16;;;;;;;5.38;1.58;;;;;;;;;;5081281;28;20027;-71
2022/07/14 01:28:42;;;;;;;5.10;1.40;;;;;;;;;;5074629;28;20057;-71
2022/07/14 01:31:07;;;;;;;3.10;1.55;;;;;;;;;;5077610;28;20414;-71
2022/07/14 01:33:33;;;;;;;5.05;1.58;;;;;;;;;;5075587;28;20051;-71
2022/07/14 01:35:58;;;;;;;5.05;1.63;;;;;;;;;;5086780;28;20028;-70
2022/07/14 01:38:23;;;;;;;11.35;1.60;;;;;;;;;;5062753;28;20089;-70
2022/07/14 01:40:48;;;;;;;4.43;1.48;;;;;;;;;;5073719;28;20058;-71
2022/07/14 01:43:14;;;;;;;3.40;1.92;;;;;;;;;;5084923;28;20020;-71
2022/07/14 01:45:39;;;;;;;8.15;1.60;;;;;;;;;;5078278;28;20090;-71
2022/07/14 01:48:04;;;;;;;7.65;1.50;;;;;;;;;;5081372;28;20086;-71
2022/07/14 01:50:30;;;;;;;6.05;1.70;;;;;;;;;;5074402;28;20032;-71
2022/07/14 01:52:55;;;;;;;8.50;1.60;;;;;;;;;;5064704;28;20056;-71
2022/07/14 01:55:20;;;;;;;4.20;1.50;;;;;;;;;;5074283;28;20452;-70
2022/07/14 01:57:45;;;;;;;5.05;1.75;;;;;;;;;;5079942;28;20024;-71
2022/07/14 02:00:11;;;;;;;6.68;1.40;;;;;;;;;;5072845;28;20028;-71
2022/07/14 02:02:36;;;;;;;4.03;1.40;;;;;;;;;;5073263;28;20017;-73
2022/07/14 02:05:02;;;;;;;5.47;1.65;;;;;;;;;;5074802;28;20493;-73
2022/07/14 02:07:27;;;;;;;3.47;1.52;;;;;;;;;;5078497;28;20033;-72
2022/07/14 02:12:36;;;;;;;3.13;1.45;;;;;;;;;;5066894;28;20043;-72
2022/07/14 02:15:03;;;;;;;8.02;1.80;;;;;;;;;;5072867;28;20396;-72
2022/07/14 02:17:28;;;;;;;6.20;1.63;;;;;;;;;;5072530;28;20483;-71
2022/07/14 02:19:53;;;;;;;5.60;1.95;;;;;;;;;;5074990;28;20029;-71
2022/07/14 02:22:18;;;;;;;4.38;1.90;;;;;;;;;;5075025;28;20040;-70
2022/07/14 02:24:43;;;;;;;6.60;1.80;;;;;;;;;;5080802;28;20107;-70
2022/07/14 02:27:09;;;;;;;4.88;1.98;;;;;;;;;;5063747;28;20029;-70
2022/07/14 02:29:34;;;;;;;6.97;1.90;;;;;;;;;;5076305;28;20040;-72
2022/07/14 02:31:59;;;;;;;4.93;1.77;;;;;;;;;;5079919;28;20028;-72
2022/07/14 02:34:25;;;;;;;5.35;1.80;;;;;;;;;;5072657;28;20444;-72
2022/07/14 02:36:50;;;;;;;3.38;1.55;;;;;;;;;;5074694;28;20056;-72
2022/07/14 02:39:15;;;;;;;2.85;1.63;;;;;;;;;;5087221;28;20086;-72
2022/07/14 02:41:41;;;;;;;4.20;1.58;;;;;;;;;;5079798;28;20099;-72
2022/07/14 02:44:08;;;;;;;3.40;1.48;;;;;;;;;;5064732;28;20032;-72
2022/07/14 02:46:34;;;;;;;4.45;1.55;;;;;;;;;;5073380;28;20032;-72
2022/07/14 02:48:59;;;;;;;5.22;1.60;;;;;;;;;;5073995;28;20036;-72
2022/07/14 02:51:24;;;;;;;3.92;1.48;;;;;;;;;;5074617;28;20037;-72
2022/07/14 02:53:49;;;;;;;5.95;1.75;;;;;;;;;;5081091;28;20085;-72
2022/07/14 02:56:15;;;;;;;3.72;1.60;;;;;;;;;;5080757;28;20017;-73
2022/07/14 02:58:40;;;;;;;4.40;1.90;;;;;;;;;;5075554;28;20085;-73
2022/07/14 03:01:06;;;;;;;7.18;1.92;;;;;;;;;;5077974;28;20025;-73
2022/07/14 03:03:32;;;;;;;3.63;1.73;;;;;;;;;;5074992;28;20456;-73
2022/07/14 03:05:57;;;;;;;5.72;1.50;;;;;;;;;;5083855;28;20033;-73
2022/07/14 03:08:22;;;;;;;3.83;1.58;;;;;;;;;;5079169;28;20043;-72
2022/07/14 03:10:49;;;;;;;10.82;1.90;;;;;;;;;;5081234;28;20100;-72
2022/07/14 03:13:14;;;;;;;3.72;1.50;;;;;;;;;;5082302;28;20036;-72
2022/07/14 03:15:40;;;;;;;7.47;1.90;;;;;;;;;;5081476;28;20372;-71
2022/07/14 03:18:05;;;;;;;3.40;1.73;;;;;;;;;;5078262;28;20032;-72
2022/07/14 03:20:30;;;;;;;13.63;1.98;;;;;;;;;;5085928;28;20070;-72
2022/07/14 03:22:56;;;;;;;4.63;1.63;;;;;;;;;;5081676;28;20032;-72
2022/07/14 03:25:21;;;;;;;7.35;1.65;;;;;;;;;;5088488;28;20046;-72
2022/07/14 03:27:47;;;;;;;3.83;1.70;;;;;;;;;;5088690;28;20050;-73
2022/07/14 03:30:12;;;;;;;5.68;1.98;;;;;;;;;;5074808;28;20038;-71
2022/07/14 03:32:38;;;;;;;9.18;1.88;;;;;;;;;;5072093;28;20028;-72
2022/07/14 03:35:06;;;;;;;4.55;1.90;;;;;;;;;;5076423;28;20467;-71
2022/07/14 03:37:31;;;;;;;8.57;2.10;;;;;;;;;;5081296;28;20029;-72
2022/07/14 03:39:56;;;;;;;6.40;2.13;;;;;;;;;;5081798;28;20116;-72
2022/07/14 03:42:22;;;;;;;5.65;1.90;;;;;;;;;;5086278;28;20411;-72
2022/07/14 03:44:47;;;;;;;7.43;1.90;;;;;;;;;;5081213;28;20056;-72
2022/07/14 03:47:12;;;;;;;3.50;1.75;;;;;;;;;;5081831;28;20009;-71
2022/07/14 03:49:38;;;;;;;5.45;2.30;;;;;;;;;;5077342;28;20048;-71
2022/07/14 03:52:03;;;;;;;8.43;2.05;;;;;;;;;;5080649;28;20431;-71
2022/07/14 03:54:28;;;;;;;6.07;1.98;;;;;;;;;;5081739;28;20022;-71
2022/07/14 03:56:54;;;;;;;5.35;1.95;;;;;;;;;;5089432;28;20028;-72
2022/07/14 03:59:19;;;;;;;4.75;2.03;;;;;;;;;;5082966;28;20530;-72
2022/07/14 04:01:44;;;;;;;3.35;2.00;;;;;;;;;;5075733;28;20460;-71
2022/07/14 04:04:09;;;;;;;9.93;2.28;;;;;;;;;;5075208;28;20120;-71
2022/07/14 04:06:35;;;;;;;7.40;2.53;;;;;;;;;;5059839;28;20398;-71
2022/07/14 04:09:00;;;;;;;5.43;2.30;;;;;;;;;;5084582;28;20028;-71
2022/07/14 04:11:26;;;;;;;8.43;2.42;;;;;;;;;;5063612;28;20044;-72
2022/07/14 04:13:51;;;;;;;5.90;2.25;;;;;;;;;;5075930;28;20103;-71
2022/07/14 04:16:16;;;;;;;6.38;2.10;;;;;;;;;;5078289;28;20021;-72
2022/07/14 04:18:42;;;;;;;6.28;2.17;;;;;;;;;;5077296;28;20058;-72
2022/07/14 04:21:08;;;;;;;3.75;2.00;;;;;;;;;;5079419;28;20093;-71
2022/07/14 04:23:33;;;;;;;6.38;2.10;;;;;;;;;;5075348;28;20032;-71
2022/07/14 04:26:00;;;;;;;4.88;2.15;;;;;;;;;;5084858;28;20037;-72
2022/07/14 04:28:25;;;;;;;3.65;1.95;;;;;;;;;;5084820;28;20116;-71
2022/07/14 04:30:50;;;;;;;5.53;2.22;;;;;;;;;;5085738;28;20091;-71
2022/07/14 04:33:18;;;;;;;5.38;2.03;;;;;;;;;;5081921;28;20407;-71
2022/07/14 04:35:44;;;;;;;7.15;2.38;;;;;;;;;;5076735;28;20449;-72
2022/07/14 04:38:09;;;;;;;8.57;2.30;;;;;;;;;;5075221;28;20020;-72
2022/07/14 04:40:35;;;;;;;3.80;2.00;;;;;;;;;;5078191;28;20468;-72
2022/07/14 04:43:01;;;;;;;8.68;2.10;;;;;;;;;;5079231;28;20354;-72
2022/07/14 04:45:26;;;;;;;4.50;1.90;;;;;;;;;;5074222;28;20016;-72
2022/07/14 04:47:51;;;;;;;9.07;2.00;;;;;;;;;;5075638;28;20036;-71
2022/07/14 04:53:00;;;;;;;6.10;2.30;;;;;;;;;;5082249;28;20032;-71
2022/07/14 04:55:26;;;;;;;5.68;1.92;;;;;;;;;;5075864;28;20032;-71
2022/07/14 04:57:51;;;;;;;4.47;1.73;;;;;;;;;;5087859;28;20065;-71
2022/07/14 05:00:16;;;;;;;5.43;1.60;;;;;;;;;;5079332;28;20371;-71
2022/07/14 05:02:41;;;;;;;9.40;1.90;;;;;;;;;;5077819;28;20039;-71
2022/07/14 05:05:07;;;;;;;4.10;1.08;;;;;;;;;;5083237;28;20024;-71
2022/07/14 05:07:33;;;;;;;3.75;1.27;;;;;;;;;;5083399;28;20028;-71
2022/07/14 05:09:58;;;;;;;4.80;1.20;;;;;;;;;;5085008;28;20081;-71
2022/07/14 05:12:23;;;;;;;2.53;1.30;;;;;;;;;;5080628;28;20452;-71
2022/07/14 05:14:48;;;;;;;6.63;1.20;;;;;;;;;;5082166;28;20032;-72
2022/07/14 05:17:14;;;;;;;3.47;1.20;;;;;;;;;;5073484;28;20039;-71
2022/07/14 05:19:39;;;;;;;3.92;1.42;;;;;;;;;;5082370;28;20016;-72
2022/07/14 05:22:05;;;;;;;2.08;1.10;;;;;;;;;;5089596;28;20027;-72
2022/07/14 05:24:30;;;;;;;3.55;1.08;;;;;;;;;;5089367;28;20039;-72
2022/07/14 05:26:58;;;;;;;2.58;1.02;;;;;;;;;;5080623;28;20028;-72
2022/07/14 05:29:24;;;;;;;4.47;1.00;;;;;;;;;;5079835;28;20032;-72
2022/07/14 05:31:51;;;;;;;3.38;1.00;;;;;;;;;;5074937;28;20033;-72
2022/07/14 05:34:16;;;;;;;1.92;1.00;;;;;;;;;;5073847;28;20029;-72
2022/07/14 05:36:41;;;;;;;4.03;1.13;;;;;;;;;;5086956;28;20039;-73
2022/07/14 05:39:06;;;;;;;2.40;0.90;;;;;;;;;;5073260;28;20060;-72
2022/07/14 05:41:32;;;;;;;3.03;1.10;;;;;;;;;;5088484;28;20038;-71
2022/07/14 05:43:57;;;;;;;1.73;1.00;;;;;;;;;;5074628;28;20453;-71
2022/07/14 05:46:22;;;;;;;2.40;1.10;;;;;;;;;;5065682;28;20379;-71
2022/07/14 05:48:48;;;;;;;2.30;1.10;;;;;;;;;;5080033;28;20479;-71
2022/07/14 05:51:14;;;;;;;3.45;1.00;;;;;;;;;;5087027;28;20372;-71
2022/07/14 05:53:40;;;;;;;5.93;1.00;;;;;;;;;;5078022;28;20033;-71
2022/07/14 05:56:06;;;;;;;2.38;0.95;;;;;;;;;;5077632;28;20024;-71
2022/07/14 05:58:31;;;;;;;5.65;1.45;;;;;;;;;;5078178;28;20021;-71
2022/07/14 06:00:57;;;;;;;4.80;1.75;;;;;;;;;;5072672;28;20024;-71
2022/07/14 06:03:22;;;;;;;2.55;1.10;;;;;;;;;;5080525;28;20115;-71
2022/07/14 06:05:47;;;;;;;2.30;0.98;;;;;;;;;;5086861;28;20016;-71
2022/07/14 06:08:13;;;;;;;2.22;1.00;;;;;;;;;;5082436;28;20041;-71
2022/07/14 06:10:38;;;;;;;2.60;1.10;;;;;;;;;;5088202;28;20020;-71
2022/07/14 06:13:03;;;;;;;3.10;1.00;;;;;;;;;;5074776;28;20020;-71
2022/07/14 06:15:29;;;;;;;2.42;1.17;;;;;;;;;;5075262;28;20028;-72
2022/07/14 06:17:54;;;;;;;1.60;0.90;;;;;;;;;;5073070;28;20020;-72
2022/07/14 06:20:20;;;;;;;2.78;0.98;;;;;;;;;;5080657;28;20024;-71
2022/07/14 06:22:45;;;;;;;2.25;1.05;;;;;;;;;;5087189;28;20024;-72
2022/07/14 06:25:10;;;;;;;2.33;1.00;;;;;;;;;;5080609;28;20031;-72
2022/07/14 06:27:36;;;;;;;2.55;1.10;;;;;;;;;;5056387;28;20131;-72
2022/07/14 06:30:04;;;;;;;2.22;1.10;;;;;;;;;;5075015;28;20549;-72
2022/07/14 06:32:30;;;;;;;1.90;1.02;;;;;;;;;;5072617;28;20024;-72
2022/07/14 06:34:55;;;;;;;3.53;1.10;;;;;;;;;;5072703;28;20020;-72
2022/07/14 06:37:20;;;;;;;4.93;1.10;;;;;;;;;;5075830;28;20675;-72
2022/07/14 06:39:45;;;;;;;1.63;0.90;;;;;;;;;;5077078;28;20072;-72
2022/07/14 06:42:11;;;;;;;2.53;1.00;;;;;;;;;;5086679;28;20406;-72
2022/07/14 06:44:36;;;;;;;4.07;1.10;;;;;;;;;;5086294;28;20035;-72
2022/07/14 06:47:01;;;;;;;3.85;1.10;;;;;;;;;;5075176;28;20414;-72
2022/07/14 06:49:27;;;;;;;1.52;0.90;;;;;;;;;;5088150;28;20032;-72
2022/07/14 06:51:52;;;;;;;3.28;1.10;;;;;;;;;;5090409;28;20390;-72
2022/07/14 06:54:18;;;;;;;3.97;1.02;;;;;;;;;;5081146;28;20016;-72
2022/07/14 06:56:43;;;;;;;3.13;1.10;;;;;;;;;;5084090;28;20459;-73
2022/07/14 06:59:08;;;;;;;2.72;1.17;;;;;;;;;;5078935;28;20124;-73
2022/07/14 07:01:34;;;;;;;3.88;1.30;;;;;;;;;;5076291;28;20026;-73
2022/07/14 07:03:59;;;;;;;2.78;1.08;;;;;;;;;;5072529;28;20055;-73
2022/07/14 07:09:08;;;;;;;3.83;1.30;;;;;;;;;;5073563;28;20090;-73
2022/07/14 07:11:33;;;;;;;3.30;1.17;;;;;;;;;;5091515;28;20455;-72
2022/07/14 07:13:59;;;;;;;2.85;1.20;;;;;;;;;;5081874;28;20311;-72
2022/07/14 07:16:25;;;;;;;4.10;1.40;;;;;;;;;;5082081;28;20023;-72
2022/07/14 07:18:50;;;;;;;3.22;1.17;;;;;;;;;;5081378;28;20637;-72
2022/07/14 07:21:18;;;;;;;6.13;1.10;;;;;;;;;;5087702;28;20024;-72
2022/07/14 07:23:46;;;;;;;2.78;1.23;;;;;;;;;;5080662;28;20531;-73
2022/07/14 07:26:11;;;;;;;4.28;1.38;;;;;;;;;;5081212;28;20032;-72
2022/07/14 07:28:36;;;;;;;1.92;1.00;;;;;;;;;;5079155;28;20019;-72
2022/07/14 07:31:02;;;;;;;2.88;1.15;;;;;;;;;;5087885;28;20414;-72
2022/07/14 07:33:28;;;;;;;3.97;1.30;;;;;;;;;;5075767;28;20032;-73
2022/07/14 07:35:53;;;;;;;5.53;1.20;;;;;;;;;;5082942;28;20030;-72
2022/07/14 07:38:18;;;;;;;4.25;1.27;;;;;;;;;;5082768;28;20321;-73
2022/07/14 07:40:44;;;;;;;3.35;1.20;;;;;;;;;;5084376;28;20059;-73
2022/07/14 07:43:10;;;;;;;5.72;1.45;;;;;;;;;;5086453;28;20036;-73
2022/07/14 07:45:35;;;;;;;2.97;1.00;;;;;;;;;;5080276;28;20028;-72
2022/07/14 07:48:04;;;;;;;5.45;1.20;;;;;;;;;;5083409;28;20044;-72
2022/07/14 07:50:29;;;;;;;5.07;1.33;;;;;;;;;;5086019;28;20035;-72
2022/07/14 07:52:55;;;;;;;3.90;1.17;;;;;;;;;;5092419;28;20016;-73
2022/07/14 07:55:20;;;;;;;3.25;1.30;;;;;;;;;;5085866;28;20111;-73
2022/07/14 07:57:45;;;;;;;4.78;1.35;;;;;;;;;;5091849;28;20021;-73
2022/07/14 08:00:11;;;;;;;4.45;1.50;;;;;;;;;;5075179;28;20062;-73
2022/07/14 08:02:43;;;;;;;5.55;1.35;;;;;;;;;;5078377;28;20032;-73
2022/07/14 08:05:08;;;;;;;3.28;1.48;;;;;;;;;;5086527;28;20196;-74
2022/07/14 08:07:34;;;;;;;4.18;1.60;;;;;;;;;;5090367;28;20082;-73
2022/07/14 08:09:59;;;;;;;4.63;1.50;;;;;;;;;;5083951;28;20472;-73
2022/07/14 08:12:25;;;;;;;8.63;1.53;;;;;;;;;;5084462;28;20066;-73
2022/07/14 08:14:51;;;;;;;4.80;1.42;;;;;;;;;;5079637;28;20233;-73
2022/07/14 08:17:18;;;;;;;3.97;1.60;;;;;;;;;;5080904;28;20063;-74
2022/07/14 08:19:43;;;;;;;4.60;1.58;;;;;;;;;;5088222;28;20036;-74
2022/07/14 08:22:08;;;;;;;4.95;1.55;;;;;;;;;;5092126;28;20486;-74
2022/07/14 08:24:34;;;;;;;6.90;1.40;;;;;;;;;;5076976;28;20024;-75
2022/07/14 08:26:59;;;;;;;7.60;1.92;;;;;;;;;;5077806;28;20384;-74
2022/07/14 08:29:24;;;;;;;3.75;1.33;;;;;;;;;;5080723;28;20024;-73
2022/07/14 08:31:50;;;;;;;4.40;1.40;;;;;;;;;;5084090;28;20044;-73
2022/07/14 08:34:15;;;;;;;4.53;1.67;;;;;;;;;;5082544;28;20249;-73
2022/07/14 08:36:40;;;;;;;4.22;1.48;;;;;;;;;;5086882;28;20024;-73
2022/07/14 08:39:06;;;;;;;6.15;1.60;;;;;;;;;;5085208;28;20053;-73
2022/07/14 08:41:35;;;;;;;4.38;1.42;;;;;;;;;;5090163;28;20511;-74
2022/07/14 08:44:01;;;;;;;6.30;1.63;;;;;;;;;;5083832;28;20026;-73
2022/07/14 08:46:26;;;;;;;5.35;1.80;;;;;;;;;;5088999;28;20032;-74
2022/07/14 08:48:52;;;;;;;5.80;1.52;;;;;;;;;;5083267;28;20027;-74
2022/07/14 08:51:18;;;;;;;3.80;1.48;;;;;;;;;;5073905;28;20016;-74
2022/07/14 08:53:44;;;;;;;4.57;1.67;;;;;;;;;;5063030;28;20129;-74
2022/07/14 08:56:10;;;;;;;4.97;1.80;;;;;;;;;;5075386;28;20016;-74
2022/07/14 08:58:36;;;;;;;4.60;1.55;;;;;;;;;;5069016;28;20352;-74
2022/07/14 09:01:01;;;;;;;4.03;1.35;;;;;;;;;;5071488;28;20097;-74
2022/07/14 09:03:26;;;;;;;4.53;1.30;;;;;;;;;;5079525;28;20026;-74
2022/07/14 09:05:53;;;;;;;8.00;1.70;;;;;;;;;;5084062;28;20042;-74
2022/07/14 09:08:18;;;;;;;3.35;1.40;;;;;;;;;;5080916;28;20260;-73
2022/07/14 09:10:44;;;;;;;4.00;1.52;;;;;;;;;;5069081;28;20016;-74
2022/07/14 09:13:19;;;;;;;6.30;1.63;;;;;;;;;;5082207;28;20065;-74
2022/07/14 09:15:45;;;;;;;8.38;1.65;;;;;;;;;;5086818;28;20036;-74
2022/07/14 09:18:18;;;;;;;5.03;1.70;;;;;;;;;;5087055;28;20085;-74
2022/07/14 09:20:43;;;;;;;3.95;1.45;;;;;;;;;;5074794;28;20219;-73
2022/07/14 09:23:09;;;;;;;2.80;1.20;;;;;;;;;;5086932;28;20575;-74
2022/07/14 09:25:35;;;;;;;5.55;1.58;;;;;;;;;;5087616;28;20027;-74
2022/07/14 09:28:01;;;;;;;6.35;1.60;;;;;;;;;;5086705;28;20103;-73
2022/07/14 09:30:26;;;;;;;5.20;1.60;;;;;;;;;;5078927;28;20107;-73
2022/07/14 09:32:51;;;;;;;5.15;1.50;;;;;;;;;;5074572;28;20020;-73
2022/07/14 09:35:19;;;;;;;5.63;1.65;;;;;;;;;;5087417;28;20364;-73
2022/07/14 09:37:46;;;;;;;4.43;1.40;;;;;;;;;;5091836;28;20024;-73
2022/07/14 09:40:21;;;;;;;4.90;1.40;;;;;;;;;;5080701;28;20476;-73
2022/07/14 09:42:46;;;;;;;5.95;1.50;;;;;;;;;;5079936;28;20090;-73
2022/07/14 09:45:14;;;;;;;6.00;1.48;;;;;;;;;;5075770;28;20452;-74
2022/07/14 09:47:56;;;;;;;4.45;1.48;;;;;;;;;;5073943;28;20027;-74
2022/07/14 09:50:42;;;;;;;6.68;1.42;;;;;;;;;;5073465;28;20437;-73
2022/07/14 09:53:13;;;;;;;5.80;1.63;;;;;;;;;;5072592;28;20480;-74
2022/07/14 09:55:40;;;;;;;4.93;1.67;;;;;;;;;;5043527;28;20016;-74
2022/07/14 09:58:09;;;;;;;3.92;1.48;;;;;;;;;;5077735;28;20373;-73
2022/07/14 10:00:34;;;;;;;3.88;1.45;;;;;;;;;;5061118;28;20033;-74
2022/07/14 10:03:02;;;;;;;2.75;1.20;;;;;;;;;;5074478;28;20024;-74
2022/07/14 10:05:28;;;;;;;4.20;1.40;;;;;;;;;;5076628;28;20052;-74
2022/07/14 10:07:53;;;;;;;7.50;1.52;;;;;;;;;;5077045;28;20075;-74
2022/07/14 10:10:19;;;;;;;5.15;1.80;;;;;;;;;;5070840;28;20025;-74
2022/07/14 10:12:45;;;;;;;3.90;1.40;;;;;;;;;;5075230;28;20087;-74
2022/07/14 10:15:12;;;;;;;6.70;1.58;;;;;;;;;;5074008;28;20030;-74
2022/07/14 10:17:39;;;;;;;5.55;1.50;;;;;;;;;;5073393;28;20028;-74
2022/07/14 10:20:06;;;;;;;7.55;1.70;;;;;;;;;;5072474;28;20048;-74
2022/07/14 10:22:32;;;;;;;4.78;1.50;;;;;;;;;;5078494;28;20422;-74
2022/07/14 10:24:57;;;;;;;5.53;1.52;;;;;;;;;;5082825;28;20104;-74
2022/07/14 10:27:22;;;;;;;6.47;1.55;;;;;;;;;;5086567;28;20106;-74
2022/07/14 10:29:49;;;;;;;4.93;1.50;;;;;;;;;;5085969;28;20081;-74
2022/07/14 10:32:22;;;;;;;7.78;1.77;;;;;;;;;;5069234;28;20024;-74
2022/07/14 10:35:06;;;;;;;4.18;1.40;;;;;;;;;;5070127;28;20047;-74
2022/07/14 10:37:40;;;;;;;3.45;1.40;;;;;;;;;;5076043;28;20523;-74
2022/07/14 10:40:06;;;;;;;5.13;1.65;;;;;;;;;;5058313;28;20053;-74
2022/07/14 10:42:37;;;;;;;5.10;1.52;;;;;;;;;;5072787;28;20025;-74
2022/07/14 10:45:03;;;;;;;3.53;1.20;;;;;;;;;;5073517;28;20044;-74
2022/07/14 10:47:48;;;;;;;5.55;1.35;;;;;;;;;;5079227;28;20103;-74
2022/07/14 10:50:18;;;;;;;8.30;2.00;;;;;;;;;;5065273;28;20033;-74
2022/07/14 10:52:50;;;;;;;4.47;1.30;;;;;;;;;;5068212;28;20507;-74
2022/07/14 10:55:15;;;;;;;4.55;1.60;;;;;;;;;;5075883;28;20039;-73
2022/07/14 10:58:16;;;;;;;7.55;1.33;;;;;;;;;;5092126;28;20028;-74
2022/07/14 11:00:44;;;;;;;4.60;1.65;;;;;;;;;;4990635;28;20125;-73
2022/07/14 11:03:19;;;;;;;3.60;1.23;;;;;;;;;;5053518;28;20051;-73
2022/07/14 11:06:00;;;;;;;4.05;1.40;;;;;;;;;;5069097;28;20106;-73
2022/07/14 11:08:25;;;;;;;3.75;1.40;;;;;;;;;;5068487;28;20032;-73
2022/07/14 11:10:55;;;;;;;5.38;1.23;;;;;;;;;;5077157;28;20563;-73
2022/07/14 11:13:21;;;;;;;5.25;1.23;;;;;;;;;;5078339;28;20032;-73
2022/07/14 11:15:49;;;;;;;6.43;1.38;;;;;;;;;;5081280;28;20015;-73
2022/07/14 11:18:17;;;;;;;2.80;1.10;;;;;;;;;;5077695;28;20079;-73
2022/07/14 11:20:49;;;;;;;4.50;1.30;;;;;;;;;;5069716;28;20456;-73
2022/07/14 11:23:16;;;;;;;3.85;1.10;;;;;;;;;;5080170;28;20032;-73
2022/07/14 11:25:41;;;;;;;6.32;1.10;;;;;;;;;;5079459;28;20029;-73
2022/07/14 11:28:26;;;;;;;3.30;1.10;;;;;;;;;;5082652;28;20544;-73
2022/07/14 11:31:07;;;;;;;5.60;1.40;;;;;;;;;;5074022;28;20036;-73
2022/07/14 11:33:33;;;;;;;5.00;1.13;;;;;;;;;;5074482;28;20040;-72
2022/07/14 11:36:18;;;;;;;6.20;1.25;;;;;;;;;;5074817;28;20074;-73
2022/07/14 11:38:44;;;;;;;4.93;1.25;;;;;;;;;;5078761;28;20033;-73
2022/07/14 11:41:15;;;;;;;5.85;1.50;;;;;;;;;;5088551;28;20089;-73
2022/07/14 11:43:44;;;;;;;3.83;1.10;;;;;;;;;;5081691;28;20028;-73
2022/07/14 11:46:11;;;;;;;5.40;1.60;;;;;;;;;;5072250;28;20035;-73
2022/07/14 11:48:37;;;;;;;6.03;1.38;;;;;;;;;;5067413;28;20386;-73
2022/07/14 11:51:03;;;;;;;4.53;1.48;;;;;;;;;;5060648;28;20102;-72
2022/07/14 11:53:28;;;;;;;6.60;1.17;;;;;;;;;;5071316;28;20032;-72
2022/07/14 11:55:54;;;;;;;5.00;1.45;;;;;;;;;;5065463;28;20040;-73
2022/07/14 11:58:22;;;;;;;3.08;1.30;;;;;;;;;;5067274;28;20030;-73
2022/07/14 12:00:57;;;;;;;4.32;1.27;;;;;;;;;;5066577;28;20104;-73
2022/07/14 12:03:23;;;;;;;4.20;1.55;;;;;;;;;;5058683;28;20036;-72
2022/07/14 12:05:52;;;;;;;3.75;1.23;;;;;;;;;;5072487;28;20033;-72
2022/07/14 12:08:39;;;;;;;4.28;1.20;;;;;;;;;;5077690;28;20034;-73
2022/07/14 12:11:09;;;;;;;2.97;1.30;;;;;;;;;;5076381;28;20031;-72
2022/07/14 12:13:55;;;;;;;3.88;1.30;;;;;;;;;;5084775;28;20027;-73
2022/07/14 12:16:21;;;;;;;5.22;1.50;;;;;;;;;;5071172;28;20043;-72
2022/07/14 12:18:47;;;;;;;3.72;1.15;;;;;;;;;;5071109;28;20153;-73
2022/07/14 12:21:12;;;;;;;2.88;1.05;;;;;;;;;;5089796;28;20131;-73
2022/07/14 12:23:54;;;;;;;4.45;1.20;;;;;;;;;;5076560;28;20070;-72
2022/07/14 12:26:20;;;;;;;3.95;1.00;;;;;;;;;;5063520;28;20498;-72
2022/07/14 12:28:54;;;;;;;6.25;1.45;;;;;;;;;;5069305;28;20103;-72
2022/07/14 12:31:19;;;;;;;4.95;1.33;;;;;;;;;;5075257;28;20036;-72
2022/07/14 12:33:46;;;;;;;5.68;1.73;;;;;;;;;;5065884;28;20028;-72
2022/07/14 12:36:12;;;;;;;5.72;1.23;;;;;;;;;;5072676;28;20025;-71
2022/07/14 12:38:38;;;;;;;5.37;1.20;;;;;;;;;;5017681;28;1205220;-72
2022/07/14 12:41:05;;;;;;;3.60;1.08;;;;;;;;;;5072749;28;20178;-73
2022/07/14 12:43:31;;;;;;;4.65;1.10;;;;;;;;;;5066943;28;20032;-74
2022/07/14 12:46:00;;;;;;;5.22;1.25;;;;;;;;;;5065379;28;20021;-72
2022/07/14 12:48:27;;;;;;;5.47;1.40;;;;;;;;;;5068895;28;20107;-71
2022/07/14 12:50:52;;;;;;;6.30;1.20;;;;;;;;;;5083908;28;20489;-72
2022/07/14 12:53:18;;;;;;;5.35;1.17;;;;;;;;;;5079494;28;20053;-72
2022/07/14 12:55:44;;;;;;;5.05;1.58;;;;;;;;;;5071601;28;20032;-74
2022/07/14 12:58:11;;;;;;;4.00;1.15;;;;;;;;;;5064982;28;20499;-73
2022/07/14 13:00:37;;;;;;;4.32;1.23;;;;;;;;;;5064508;28;20024;-72
2022/07/14 13:03:21;;;;;;;3.08;1.10;;;;;;;;;;5080395;28;20036;-74
2022/07/14 13:05:46;;;;;;;;;;;;;;;;;;5075952;28;20118;-73
2022/07/14 13:08:33;;;;;;;2.83;1.10;;;;;;;;;;5087680;28;19995;-73
2022/07/14 13:10:59;;;;;;;5.97;1.27;;;;;;;;;;5075176;28;20279;-74
2022/07/14 13:13:29;;;;;;;2.33;1.00;;;;;;;;;;5070818;28;20036;-74
2022/07/14 13:16:12;;;;;;;5.90;1.30;;;;;;;;;;5082744;28;20084;-73
2022/07/14 13:18:37;;;;;;;5.60;1.40;;;;;;;;;;5083704;28;20044;-74
2022/07/14 13:21:03;;;;;;;3.53;1.20;;;;;;;;;;5056256;28;20031;-74
2022/07/14 13:23:35;;;;;;;3.95;1.23;;;;;;;;;;5066249;28;20460;-74
2022/07/14 13:26:07;;;;;;;3.92;1.30;;;;;;;;;;5067018;28;20472;-74
2022/07/14 13:28:34;;;;;;;3.67;1.20;;;;;;;;;;5079766;28;20036;-73
2022/07/14 13:31:02;;;;;;;4.85;1.13;;;;;;;;;;5076681;28;20472;-73
2022/07/14 13:33:27;;;;;;;3.35;1.13;;;;;;;;;;5091463;28;20051;-74
2022/07/14 13:35:53;;;;;;;4.13;1.45;;;;;;;;;;5072222;28;20367;-74
2022/07/14 13:38:18;;;;;;;3.55;1.17;;;;;;;;;;5081598;28;20463;-74
2022/07/14 13:40:44;;;;;;;3.58;1.13;;;;;;;;;;5077398;28;20476;-73
2022/07/14 13:43:09;;;;;;;4.75;1.15;;;;;;;;;;5083302;28;20020;-74
2022/07/14 13:45:34;;;;;;;2.70;0.93;;;;;;;;;;5078967;28;20026;-73
2022/07/14 13:47:59;;;;;;;4.80;1.23;;;;;;;;;;5074391;28;20082;-74
2022/07/14 13:53:08;;;;;;;;;;;;;;;;;;5060428;28;20027;-74
2022/07/14 13:55:33;;;;;;;3.63;1.20;;;;;;;;;;5081542;28;19908;-73
2022/07/14 13:57:59;;;;;;;3.42;1.02;;;;;;;;;;5082534;28;20056;-74
2022/07/14 14:00:24;;;;;;;3.83;1.00;;;;;;;;;;5084324;28;20444;-73
2022/07/14 14:05:33;;;;;;;3.88;1.23;;;;;;;;;;5063559;28;20039;-74
2022/07/14 14:07:58;;;;;;;2.97;1.58;;;;;;;;;;5078402;28;20159;-73
2022/07/14 14:10:24;;;;;;;3.38;1.23;;;;;;;;;;5082880;28;20101;-73
2022/07/14 14:12:49;;;;;;;10.98;1.45;;;;;;;;;;5085739;28;20027;-74
2022/07/14 14:15:14;;;;;;;5.53;1.00;;;;;;;;;;5084379;28;20024;-73
2022/07/14 14:17:39;;;;;;;3.30;1.27;;;;;;;;;;5090871;28;20058;-73
2022/07/14 14:20:05;;;;;;;5.65;1.50;;;;;;;;;;5082000;28;20119;-73
2022/07/14 14:22:30;;;;;;;5.32;1.00;;;;;;;;;;5087114;28;20035;-71
2022/07/14 14:24:55;;;;;;;4.90;1.40;;;;;;;;;;5082487;28;20033;-74
2022/07/14 14:27:21;;;;;;;1.73;0.80;;;;;;;;;;5081671;28;20462;-72
2022/07/14 14:29:46;;;;;;;4.22;1.63;;;;;;;;;;5073269;28;20035;-71
2022/07/14 14:32:11;;;;;;;4.47;1.20;;;;;;;;;;5083313;28;20023;-73
2022/07/14 14:34:37;;;;;;;3.40;0.98;;;;;;;;;;5088761;28;20091;-73
2022/07/14 14:37:02;;;;;;;4.75;1.38;;;;;;;;;;5087694;28;20024;-74
2022/07/14 14:39:27;;;;;;;6.70;1.23;;;;;;;;;;5088067;28;20129;-74
2022/07/14 14:41:53;;;;;;;4.43;1.15;;;;;;;;;;5091857;28;20036;-74
2022/07/14 14:44:18;;;;;;;4.32;1.20;;;;;;;;;;5088221;28;20024;-73
2022/07/14 14:46:43;;;;;;;4.15;1.23;;;;;;;;;;5089620;28;20122;-73
2022/07/14 14:49:08;;;;;;;4.15;1.10;;;;;;;;;;5077814;28;20032;-72
2022/07/14 14:51:34;;;;;;;4.43;1.20;;;;;;;;;;5081872;28;20074;-74
2022/07/14 14:53:59;;;;;;;2.83;1.15;;;;;;;;;;5079742;28;20428;-71